createdAt,value
2017-01-15T00:00:14.565Z,94.524
2017-01-15T00:03:07.905Z,94.980
2017-01-15T00:06:01.120Z,95.307
2017-01-15T00:08:54.345Z,96.138
2017-01-15T00:11:47.533Z,95.296
2017-01-15T00:14:40.823Z,95.983
2017-01-15T00:17:35.867Z,95.199
2017-01-15T00:20:28.072Z,95.017
2017-01-15T00:23:21.287Z,96.346
2017-01-15T00:26:14.840Z,94.813
2017-01-15T00:29:08.277Z,94.518
2017-01-15T00:32:02.730Z,94.396
2017-01-15T00:34:56.706Z,94.331
2017-01-15T00:37:48.281Z,94.374
2017-01-15T00:40:43.362Z,94.382
2017-01-15T00:43:34.958Z,94.405
2017-01-15T00:46:29.883Z,94.302
2017-01-15T00:49:21.598Z,94.362
2017-01-15T00:52:16.651Z,94.233
2017-01-15T00:55:08.079Z,94.218
2017-01-15T00:58:02.928Z,94.051
2017-01-15T01:00:56.592Z,94.056
2017-01-15T01:03:48.947Z,93.550
2017-01-15T01:06:42.976Z,93.515
2017-01-15T01:09:36.279Z,93.377
2017-01-15T01:12:27.817Z,93.575
2017-01-15T01:15:21.105Z,93.007
2017-01-15T01:18:16.020Z,93.457
2017-01-15T01:21:09.580Z,93.497
2017-01-15T01:24:02.240Z,93.045
2017-01-15T01:26:54.546Z,93.150
2017-01-15T01:29:47.932Z,93.219
2017-01-15T01:32:41.197Z,92.913
2017-01-15T01:35:34.404Z,92.651
2017-01-15T01:38:27.671Z,92.535
2017-01-15T01:41:20.885Z,92.666
2017-01-15T01:44:14.102Z,92.676
2017-01-15T01:47:09.094Z,92.206
2017-01-15T01:50:00.693Z,92.357
2017-01-15T01:52:53.969Z,92.130
2017-01-15T01:55:47.240Z,92.598
2017-01-15T01:58:40.410Z,92.707
2017-01-15T02:01:33.634Z,92.430
2017-01-15T02:04:26.799Z,92.704
2017-01-15T02:07:19.961Z,93.314
2017-01-15T02:10:14.942Z,94.532
2017-01-15T02:13:06.529Z,95.790
2017-01-15T02:16:00.623Z,96.655
2017-01-15T02:18:54.588Z,96.801
2017-01-15T02:21:46.027Z,97.079
2017-01-15T02:24:39.227Z,97.342
2017-01-15T02:27:34.189Z,97.115
2017-01-15T02:30:27.540Z,97.564
2017-01-15T02:33:19.247Z,96.857
2017-01-15T02:36:14.179Z,96.885
2017-01-15T02:39:07.587Z,96.713
2017-01-15T02:42:00.690Z,96.835
2017-01-15T02:44:52.309Z,96.351
2017-01-15T02:47:46.440Z,96.129
2017-01-15T02:50:38.792Z,96.164
2017-01-15T02:53:33.724Z,96.326
2017-01-15T02:56:25.225Z,95.843
2017-01-15T02:59:20.118Z,96.101
2017-01-15T03:02:13.264Z,95.885
2017-01-15T03:05:04.883Z,95.786
2017-01-15T03:07:59.879Z,95.428
2017-01-15T03:10:53.072Z,95.673
2017-01-15T03:13:44.647Z,95.664
2017-01-15T03:16:37.770Z,95.720
2017-01-15T03:19:32.680Z,95.792
2017-01-15T03:22:26.080Z,96.171
2017-01-15T03:25:17.501Z,96.314
2017-01-15T03:28:12.328Z,96.659
2017-01-15T03:31:03.789Z,96.873
2017-01-15T03:33:56.977Z,97.312
2017-01-15T03:36:51.946Z,97.617
2017-01-15T03:39:45.135Z,97.525
2017-01-15T03:42:38.423Z,98.071
2017-01-15T03:45:31.707Z,98.171
2017-01-15T03:48:23.226Z,98.277
2017-01-15T03:51:18.059Z,98.603
2017-01-15T03:54:10.633Z,98.599
2017-01-15T03:57:04.648Z,98.971
2017-01-15T03:59:57.847Z,98.825
2017-01-15T04:02:49.395Z,98.920
2017-01-15T04:05:43.580Z,99.350
2017-01-15T04:08:35.796Z,99.152
2017-01-15T04:11:30.693Z,99.400
2017-01-15T04:14:24.046Z,99.406
2017-01-15T04:17:15.632Z,99.603
2017-01-15T04:20:10.411Z,99.635
2017-01-15T04:23:01.988Z,99.445
2017-01-15T04:25:56.129Z,99.799
2017-01-15T04:28:48.369Z,99.679
2017-01-15T04:31:41.520Z,99.924
2017-01-15T04:34:34.734Z,99.634
2017-01-15T04:37:29.658Z,99.066
2017-01-15T04:40:22.771Z,99.381
2017-01-15T04:46:09.260Z,99.269
2017-01-15T04:49:00.706Z,99.270
2017-01-15T04:54:47.140Z,99.191
2017-01-15T04:57:40.342Z,99.392
2017-01-15T05:00:33.436Z,99.190
2017-01-15T05:03:28.523Z,98.971
2017-01-15T05:06:19.994Z,99.038
2017-01-15T05:09:14.884Z,98.986
2017-01-15T05:12:07.237Z,98.734
2017-01-15T05:14:59.731Z,98.773
2017-01-15T05:17:54.723Z,98.768
2017-01-15T05:20:47.845Z,98.567
2017-01-15T05:23:41.184Z,98.494
2017-01-15T05:26:34.365Z,98.385
2017-01-15T05:29:28.576Z,98.410
2017-01-15T05:32:19.032Z,98.491
2017-01-15T05:35:12.739Z,98.415
2017-01-15T05:38:05.970Z,98.101
2017-01-15T05:41:00.792Z,98.623
2017-01-15T05:43:52.364Z,98.554
2017-01-15T05:46:45.414Z,98.461
2017-01-15T05:49:38.682Z,98.475
2017-01-15T05:52:31.923Z,98.411
2017-01-15T05:55:26.880Z,98.260
2017-01-15T05:58:20.136Z,98.383
2017-01-15T06:01:11.697Z,98.333
2017-01-15T06:04:07.737Z,98.430
2017-01-15T06:06:58.252Z,98.211
2017-01-15T06:09:52.211Z,98.072
2017-01-15T06:12:44.852Z,98.177
2017-01-15T06:15:39.523Z,98.378
2017-01-15T06:18:33.535Z,98.614
2017-01-15T06:21:25.040Z,98.645
2017-01-15T06:24:18.293Z,98.842
2017-01-15T06:27:11.522Z,98.884
2017-01-15T06:30:06.501Z,98.795
2017-01-15T06:32:59.680Z,98.958
2017-01-15T06:35:51.253Z,99.377
2017-01-15T06:38:44.459Z,99.161
2017-01-15T06:41:38.628Z,99.118
2017-01-15T06:44:30.794Z,99.848
2017-01-15T06:47:26.663Z,99.741
2017-01-15T06:50:17.205Z,99.672
2017-01-15T06:53:12.246Z,100.000
2017-01-15T06:56:04.613Z,100.000
2017-01-15T06:58:58.600Z,100.000
2017-01-15T07:01:51.836Z,100.000
2017-01-15T07:04:45.178Z,100.000
2017-01-15T07:07:36.600Z,100.000
2017-01-15T07:10:29.872Z,100.000
2017-01-15T07:13:25.026Z,100.000
2017-01-15T07:16:17.416Z,100.000
2017-01-15T07:19:11.357Z,100.000
2017-01-15T07:22:02.983Z,100.000
2017-01-15T07:24:56.287Z,100.000
2017-01-15T07:27:49.570Z,100.000
2017-01-15T07:30:44.408Z,99.829
2017-01-15T07:33:37.579Z,99.873
2017-01-15T07:36:29.114Z,99.785
2017-01-15T07:39:22.461Z,99.215
2017-01-15T07:42:17.383Z,99.470
2017-01-15T07:45:11.185Z,99.539
2017-01-15T07:48:02.925Z,99.485
2017-01-15T07:50:56.044Z,99.464
2017-01-15T07:53:49.449Z,99.529
2017-01-15T07:56:44.325Z,99.641
2017-01-15T07:59:35.721Z,99.393
2017-01-15T08:02:28.878Z,99.633
2017-01-15T08:05:23.863Z,99.547
2017-01-15T08:08:17.303Z,99.554
2017-01-15T08:11:08.769Z,99.686
2017-01-15T08:14:02.970Z,99.298
2017-01-15T08:16:57.922Z,99.338
2017-01-15T08:19:49.372Z,99.338
2017-01-15T08:22:41.597Z,99.175
2017-01-15T08:25:34.816Z,99.279
2017-01-15T08:28:29.712Z,99.182
2017-01-15T08:31:21.235Z,99.221
2017-01-15T08:34:16.198Z,99.194
2017-01-15T08:37:07.564Z,99.172
2017-01-15T08:40:00.819Z,99.190
2017-01-15T08:42:55.676Z,99.278
2017-01-15T08:45:47.206Z,99.174
2017-01-15T08:48:42.283Z,99.265
2017-01-15T08:51:35.523Z,99.144
2017-01-15T08:54:28.687Z,99.117
2017-01-15T08:57:21.959Z,99.148
2017-01-15T09:00:13.413Z,99.179
2017-01-15T09:03:07.469Z,98.839
2017-01-15T09:06:01.431Z,98.726
2017-01-15T09:08:54.670Z,98.818
2017-01-15T09:11:46.241Z,98.940
2017-01-15T09:17:35.308Z,98.771
2017-01-15T09:20:27.430Z,99.007
2017-01-15T09:23:18.933Z,99.054
2017-01-15T09:26:12.112Z,99.152
2017-01-15T09:29:05.467Z,99.123
2017-01-15T09:32:00.445Z,99.152
2017-01-15T09:34:52.749Z,99.194
2017-01-15T09:37:45.368Z,99.189
2017-01-15T09:40:38.624Z,99.248
2017-01-15T09:43:31.810Z,99.118
2017-01-15T09:46:26.620Z,99.326
2017-01-15T09:49:19.962Z,99.200
2017-01-15T09:52:11.423Z,98.921
2017-01-15T09:55:04.618Z,99.016
2017-01-15T09:57:59.652Z,99.103
2017-01-15T10:00:51.250Z,99.373
2017-01-15T10:03:44.473Z,99.115
2017-01-15T10:06:38.788Z,99.393
2017-01-15T10:09:32.571Z,99.034
2017-01-15T10:12:24.856Z,99.028
2017-01-15T10:15:18.057Z,98.853
2017-01-15T10:18:11.163Z,99.023
2017-01-15T10:21:06.098Z,98.909
2017-01-15T10:23:59.372Z,98.924
2017-01-15T10:26:50.892Z,98.966
2017-01-15T10:29:44.097Z,98.855
2017-01-15T10:32:39.146Z,98.870
2017-01-15T10:35:30.510Z,98.820
2017-01-15T10:38:23.799Z,98.963
2017-01-15T10:41:17.051Z,98.938
2017-01-15T10:44:10.338Z,98.917
2017-01-15T10:47:03.653Z,98.922
2017-01-15T10:49:57.004Z,98.780
2017-01-15T10:52:50.185Z,98.879
2017-01-15T10:55:43.404Z,98.735
2017-01-15T10:58:36.651Z,98.915
2017-01-15T11:01:31.643Z,99.193
2017-01-15T11:04:23.199Z,99.169
2017-01-15T11:07:18.152Z,98.848
2017-01-15T11:10:11.272Z,99.080
2017-01-15T11:13:04.580Z,99.106
2017-01-15T11:15:57.924Z,98.835
2017-01-15T11:18:49.572Z,98.948
2017-01-15T11:21:44.413Z,98.854
2017-01-15T11:24:37.710Z,98.665
2017-01-15T11:27:29.174Z,98.516
2017-01-15T11:30:22.463Z,98.463
2017-01-15T11:33:17.305Z,98.417
2017-01-15T11:36:08.889Z,98.417
2017-01-15T11:39:03.931Z,98.534
2017-01-15T11:41:55.318Z,98.279
2017-01-15T11:44:50.875Z,98.353
2017-01-15T11:47:42.395Z,98.239
2017-01-15T11:50:35.594Z,98.514
2017-01-15T11:53:30.560Z,98.291
2017-01-15T11:56:23.615Z,98.682
2017-01-15T11:59:15.239Z,98.716
2017-01-15T12:02:09.383Z,98.756
2017-01-15T12:05:01.730Z,98.864
2017-01-15T12:07:54.948Z,98.916
2017-01-15T12:10:49.880Z,99.026
2017-01-15T12:13:41.322Z,99.210
2017-01-15T12:16:36.235Z,99.112
2017-01-15T12:19:27.598Z,99.055
2017-01-15T12:22:20.857Z,98.908
2017-01-15T12:25:14.077Z,99.006
2017-01-15T12:28:09.003Z,98.951
2017-01-15T12:31:02.394Z,98.961
2017-01-15T12:33:53.905Z,98.893
2017-01-15T12:36:48.705Z,98.898
2017-01-15T12:39:41.191Z,98.804
2017-01-15T12:42:35.318Z,98.905
2017-01-15T12:45:26.539Z,98.830
2017-01-15T12:48:20.360Z,99.060
2017-01-15T12:51:15.364Z,99.163
2017-01-15T12:54:08.690Z,98.754
2017-01-15T12:57:00.318Z,98.807
2017-01-15T12:59:53.539Z,98.971
2017-01-15T13:02:48.528Z,99.040
2017-01-15T13:05:41.834Z,98.842
2017-01-15T13:08:34.970Z,98.720
2017-01-15T13:11:28.241Z,98.754
2017-01-15T13:14:19.811Z,98.794
2017-01-15T13:17:14.717Z,98.708
2017-01-15T13:20:07.839Z,98.452
2017-01-15T13:22:59.421Z,98.254
2017-01-15T13:25:52.702Z,98.587
2017-01-15T13:28:45.938Z,98.311
2017-01-15T13:31:39.438Z,98.004
2017-01-15T13:34:34.252Z,97.929
2017-01-15T13:37:25.623Z,98.078
2017-01-15T13:40:20.471Z,98.382
2017-01-15T13:43:11.992Z,98.729
2017-01-15T13:46:05.225Z,98.806
2017-01-15T13:49:00.149Z,98.750
2017-01-15T13:51:54.389Z,98.682
2017-01-15T13:54:44.812Z,98.127
2017-01-15T13:57:38.102Z,98.368
2017-01-15T14:00:31.279Z,98.299
2017-01-15T14:03:26.225Z,97.040
2017-01-15T14:06:17.646Z,96.562
2017-01-15T14:09:10.845Z,96.607
2017-01-15T14:12:04.614Z,96.862
2017-01-15T14:14:57.499Z,97.235
2017-01-15T14:20:43.570Z,97.509
2017-01-15T14:23:37.692Z,97.476
2017-01-15T14:26:30.019Z,97.791
2017-01-15T14:29:24.174Z,97.752
2017-01-15T14:32:16.272Z,97.707
2017-01-15T14:35:10.099Z,97.742
2017-01-15T14:38:04.133Z,97.952
2017-01-15T14:40:57.244Z,98.101
2017-01-15T14:43:48.760Z,98.046
2017-01-15T14:46:42.197Z,97.689
2017-01-15T14:49:35.440Z,97.886
2017-01-15T14:52:30.241Z,98.083
2017-01-15T14:55:23.355Z,97.919
2017-01-15T14:58:14.562Z,97.973
2017-01-15T15:01:07.639Z,97.907
2017-01-15T15:04:02.565Z,97.785
2017-01-15T15:06:55.903Z,97.966
2017-01-15T15:09:48.864Z,98.041
2017-01-15T15:12:40.287Z,97.893
2017-01-15T15:15:35.201Z,97.927
2017-01-15T15:18:26.462Z,97.876
2017-01-15T15:21:21.341Z,97.786
2017-01-15T15:24:14.572Z,97.830
2017-01-15T15:27:05.776Z,97.909
2017-01-15T15:29:59.362Z,97.993
2017-01-15T15:32:52.296Z,98.111
2017-01-15T15:35:47.137Z,98.145
2017-01-15T15:38:40.339Z,98.001
2017-01-15T15:41:31.802Z,97.913
2017-01-15T15:44:24.969Z,97.959
2017-01-15T15:47:19.875Z,97.982
2017-01-15T15:50:11.256Z,97.889
2017-01-15T15:53:04.416Z,97.489
2017-01-15T15:55:58.090Z,97.482
2017-01-15T16:01:44.381Z,96.967
2017-01-15T16:04:39.153Z,97.288
2017-01-15T16:10:25.637Z,96.822
2017-01-15T16:13:16.997Z,97.385
2017-01-15T16:16:11.804Z,96.901
2017-01-15T16:19:03.422Z,96.950
2017-01-15T16:21:56.489Z,96.595
2017-01-15T16:24:49.680Z,96.396
2017-01-15T16:27:44.929Z,95.967
2017-01-15T16:30:36.319Z,95.431
2017-01-15T16:33:29.438Z,95.811
2017-01-15T16:36:22.657Z,95.509
2017-01-15T16:39:17.541Z,95.486
2017-01-15T16:42:09.026Z,95.101
2017-01-15T16:45:02.044Z,94.475
2017-01-15T16:47:56.929Z,94.548
2017-01-15T16:50:50.919Z,93.766
2017-01-15T16:53:41.370Z,93.754
2017-01-15T16:56:36.272Z,93.160
2017-01-15T16:59:27.567Z,93.691
2017-01-15T17:02:20.678Z,92.435
2017-01-15T17:05:15.471Z,92.954
2017-01-15T17:08:08.669Z,92.419
2017-01-15T17:11:01.739Z,92.519
2017-01-15T17:13:53.783Z,91.510
2017-01-15T17:16:47.970Z,91.662
2017-01-15T17:19:39.330Z,91.719
2017-01-15T17:22:32.440Z,91.725
2017-01-15T17:28:19.146Z,91.769
2017-01-15T17:31:13.946Z,92.507
2017-01-15T17:34:05.356Z,92.245
2017-01-15T17:37:00.188Z,91.887
2017-01-15T17:39:52.064Z,92.128
2017-01-15T17:42:46.911Z,92.181
2017-01-15T17:45:38.435Z,92.243
2017-01-15T17:48:33.335Z,92.285
2017-01-15T17:51:24.753Z,92.748
2017-01-15T17:54:19.457Z,91.508
2017-01-15T18:00:04.798Z,92.380
2017-01-15T18:02:59.003Z,92.611
2017-01-15T18:05:50.261Z,92.558
2017-01-15T18:08:46.005Z,92.670
2017-01-15T18:11:36.391Z,93.506
2017-01-15T18:14:31.218Z,92.962
2017-01-15T18:17:24.301Z,92.575
2017-01-15T18:20:17.371Z,92.927
2017-01-15T18:23:10.501Z,92.108
2017-01-15T18:26:01.732Z,92.288
2017-01-15T18:28:56.597Z,92.769
2017-01-15T18:34:42.903Z,91.901
2017-01-15T18:37:34.236Z,92.697
2017-01-15T18:40:29.124Z,92.752
2017-01-15T18:43:20.455Z,92.735
2017-01-15T18:46:15.435Z,92.985
2017-01-15T18:49:08.675Z,92.750
2017-01-15T18:52:00.062Z,92.647
2017-01-15T18:54:54.579Z,92.550
2017-01-15T18:57:45.976Z,92.308
2017-01-15T19:00:41.756Z,93.204
2017-01-15T19:03:33.830Z,92.968
2017-01-15T19:06:25.166Z,92.416
2017-01-15T19:09:19.870Z,92.952
2017-01-15T19:12:13.078Z,92.682
2017-01-15T19:15:04.207Z,92.863
2017-01-15T19:17:58.971Z,92.937
2017-01-15T19:20:52.083Z,93.320
2017-01-15T19:23:43.464Z,93.009
2017-01-15T19:26:36.669Z,93.641
2017-01-15T19:29:29.948Z,93.492
2017-01-15T19:32:22.828Z,93.156
2017-01-15T19:35:16.956Z,93.462
2017-01-15T19:38:08.943Z,93.659
2017-01-15T19:41:03.686Z,93.631
2017-01-15T19:43:56.896Z,93.399
2017-01-15T19:46:48.278Z,93.264
2017-01-15T19:49:41.381Z,93.385
2017-01-15T19:52:34.424Z,93.768
2017-01-15T19:55:29.356Z,93.779
2017-01-15T19:58:23.670Z,93.712
2017-01-15T20:01:15.761Z,93.635
2017-01-15T20:04:08.909Z,93.966
2017-01-15T20:07:01.952Z,94.002
2017-01-15T20:09:53.409Z,94.301
2017-01-15T20:12:46.470Z,94.313
2017-01-15T20:15:39.456Z,94.471
2017-01-15T20:18:32.480Z,95.046
2017-01-15T20:21:25.691Z,94.832
2017-01-15T20:24:20.432Z,95.355
2017-01-15T20:27:11.744Z,95.385
2017-01-15T20:30:04.779Z,95.906
2017-01-15T20:32:57.909Z,96.177
2017-01-15T20:35:52.600Z,96.608
2017-01-15T20:38:43.969Z,96.649
2017-01-15T20:41:38.698Z,96.570
2017-01-15T20:44:31.092Z,96.637
2017-01-15T20:47:23.195Z,96.959
2017-01-15T20:50:18.061Z,96.997
2017-01-15T20:53:09.467Z,96.987
2017-01-15T20:56:05.098Z,97.040
2017-01-15T20:58:55.567Z,96.961
2017-01-15T21:01:48.549Z,96.979
2017-01-15T21:04:41.726Z,96.984
2017-01-15T21:07:34.886Z,97.242
2017-01-15T21:10:28.095Z,97.139
2017-01-15T21:13:22.486Z,97.212
2017-01-15T21:16:15.248Z,97.655
2017-01-15T21:19:07.564Z,97.252
2017-01-15T21:22:02.422Z,96.786
2017-01-15T21:24:55.543Z,97.157
2017-01-15T21:27:48.565Z,97.145
2017-01-15T21:30:40.013Z,97.082
2017-01-15T21:33:33.041Z,96.777
2017-01-15T21:36:26.224Z,96.758
2017-01-15T21:39:19.569Z,97.051
2017-01-15T21:42:14.323Z,96.965
2017-01-15T21:45:07.339Z,96.769
2017-01-15T21:47:59.010Z,96.533
2017-01-15T21:50:53.845Z,96.337
2017-01-15T21:53:45.106Z,96.108
2017-01-15T21:56:38.267Z,96.666
2017-01-15T21:59:31.468Z,96.707
2017-01-15T22:02:26.182Z,96.503
2017-01-15T22:05:17.626Z,96.631
2017-01-15T22:08:12.552Z,96.591
2017-01-15T22:11:03.905Z,96.535
2017-01-15T22:13:58.720Z,96.269
2017-01-15T22:16:51.347Z,96.076
2017-01-15T22:19:45.212Z,95.905
2017-01-15T22:22:38.441Z,95.930
2017-01-15T22:25:31.532Z,95.969
2017-01-15T22:28:25.121Z,95.676
2017-01-15T22:31:16.598Z,95.719
2017-01-15T22:34:09.926Z,95.581
2017-01-15T22:37:04.882Z,95.339
2017-01-15T22:39:56.415Z,95.517
2017-01-15T22:42:50.487Z,95.377
2017-01-15T22:45:43.746Z,95.250
2017-01-15T22:48:36.015Z,95.043
2017-01-15T22:51:29.232Z,94.866
2017-01-15T22:54:24.130Z,94.390
2017-01-15T22:57:18.391Z,94.958
2017-01-15T23:00:10.737Z,94.577
2017-01-15T23:03:03.008Z,94.812
2017-01-15T23:05:56.927Z,94.962
2017-01-15T23:08:48.349Z,95.255
2017-01-15T23:11:44.120Z,94.704
2017-01-15T23:14:34.676Z,94.537
2017-01-15T23:17:29.600Z,94.826
2017-01-15T23:20:21.738Z,94.760
2017-01-15T23:23:14.254Z,94.906
2017-01-15T23:26:07.544Z,94.943
2017-01-15T23:29:01.866Z,94.987
2017-01-15T23:31:55.171Z,94.425
2017-01-15T23:34:47.349Z,94.980
2017-01-15T23:37:40.458Z,94.742
2017-01-15T23:40:33.717Z,94.452
2017-01-15T23:43:27.762Z,94.796
2017-01-15T23:46:21.777Z,94.845
2017-01-15T23:49:13.185Z,94.500
2017-01-15T23:52:06.371Z,94.866
2017-01-15T23:57:52.786Z,94.392
